Time;durP1;ratioP1;P1;durP2;ratioP2;P2;SDS_P1;SDS_P2;PMS_P1;PMS_P2;Temp;Humidity;BMP_temperature;BMP_pressure;BME280_temperature;BME280_humidity;BME280_pressure;Samples;Min_cycle;Max_cycle;Signal;HPM_P1;HPM_P2
2023/12/20 00:03:47;;;;;;;1.27;0.80;;;22.10;49.50;;;;;;10487473;28;20102;-47
2023/12/20 00:08:48;;;;;;;1.60;0.50;;;22.10;49.40;;;;;;10474634;28;20135;-47
2023/12/20 00:13:50;;;;;;;1.45;0.75;;;22.10;49.30;;;;;;10466916;28;20132;-47
2023/12/20 00:18:53;;;;;;;1.15;0.60;;;22.00;49.30;;;;;;10468102;28;20167;-46
2023/12/20 00:23:55;;;;;;;1.17;0.52;;;21.90;49.40;;;;;;10462461;28;20171;-45
2023/12/20 00:28:57;;;;;;;1.20;0.50;;;21.80;49.40;;;;;;10464877;28;20045;-47
2023/12/20 00:33:59;;;;;;;1.75;0.77;;;21.80;49.50;;;;;;10474003;28;20072;-47
2023/12/20 00:39:01;;;;;;;1.67;0.65;;;21.80;49.30;;;;;;10483995;28;20139;-47
2023/12/20 00:44:03;;;;;;;0.85;0.50;;;21.70;49.40;;;;;;10481423;28;20113;-46
2023/12/20 00:49:06;;;;;;;0.70;0.50;;;21.60;49.30;;;;;;10481336;28;20563;-47
2023/12/20 00:54:08;;;;;;;1.25;0.63;;;21.60;49.30;;;;;;10474593;28;20103;-46
2023/12/20 00:59:09;;;;;;;0.73;0.47;;;21.50;49.50;;;;;;10468645;28;20045;-46
2023/12/20 01:04:12;;;;;;;0.75;0.60;;;21.50;49.40;;;;;;10476788;28;20052;-46
2023/12/20 01:09:14;;;;;;;1.52;0.63;;;21.30;49.40;;;;;;10476116;28;20480;-46
2023/12/20 01:14:16;;;;;;;1.50;0.70;;;21.40;49.30;;;;;;10469942;28;20049;-46
2023/12/20 01:19:19;;;;;;;1.75;0.50;;;21.20;49.60;;;;;;10475628;28;20045;-47
2023/12/20 01:24:21;;;;;;;1.23;0.57;;;21.10;49.80;;;;;;10478133;28;20534;-45
2023/12/20 01:29:23;;;;;;;1.17;0.55;;;21.10;49.60;;;;;;10469530;28;20426;-46
2023/12/20 01:34:25;;;;;;;1.20;0.60;;;21.20;49.20;;;;;;10481263;28;20124;-46
2023/12/20 01:39:28;;;;;;;0.95;0.70;;;21.10;49.50;;;;;;10482602;28;20514;-46
2023/12/20 01:44:29;;;;;;;2.30;0.75;;;21.10;49.20;;;;;;10469699;28;20135;-45
2023/12/20 01:49:32;;;;;;;1.23;0.70;;;21.10;49.30;;;;;;10472273;28;20137;-48
2023/12/20 01:54:34;;;;;;;0.50;0.40;;;21.00;49.40;;;;;;10470851;28;20084;-46
2023/12/20 01:59:35;;;;;;;1.10;0.68;;;20.90;49.30;;;;;;10477874;28;20128;-47
2023/12/20 02:04:39;;;;;;;1.13;0.70;;;20.90;49.40;;;;;;10474123;28;20075;-47
2023/12/20 02:09:40;;;;;;;1.42;0.70;;;21.00;48.90;;;;;;10470331;28;20446;-45
2023/12/20 02:14:42;;;;;;;1.63;0.75;;;20.80;49.20;;;;;;10476040;28;20583;-46
2023/12/20 02:19:45;;;;;;;0.98;0.60;;;20.90;48.90;;;;;;10478032;28;20131;-47
2023/12/20 02:24:48;;;;;;;1.17;0.57;;;20.90;48.90;;;;;;10475909;28;20139;-45
2023/12/20 02:29:50;;;;;;;1.30;0.60;;;20.80;48.90;;;;;;10467024;28;20054;-46
2023/12/20 02:34:51;;;;;;;0.52;0.45;;;20.80;48.70;;;;;;10476299;28;20131;-46
2023/12/20 02:39:54;;;;;;;0.88;0.50;;;20.80;48.60;;;;;;10488552;28;20131;-47
2023/12/20 02:44:56;;;;;;;1.25;0.65;;;20.80;48.50;;;;;;10480326;28;20132;-46
2023/12/20 02:49:58;;;;;;;1.75;0.70;;;20.80;48.50;;;;;;10472899;28;20136;-45
2023/12/20 02:55:01;;;;;;;0.68;0.50;;;20.70;48.60;;;;;;10470553;28;20132;-48
2023/12/20 03:00:02;;;;;;;1.00;0.65;;;20.60;48.60;;;;;;10470248;28;20068;-47
2023/12/20 03:05:04;;;;;;;1.50;0.80;;;20.60;48.70;;;;;;10471795;28;20052;-47
2023/12/20 03:10:09;;;;;;;0.95;0.60;;;20.60;48.60;;;;;;10468790;28;20080;-44
2023/12/20 03:15:11;;;;;;;1.48;0.70;;;20.60;48.40;;;;;;10472048;28;20059;-45
2023/12/20 03:20:12;;;;;;;1.55;0.70;;;20.50;48.50;;;;;;10473835;28;20167;-47
2023/12/20 03:25:16;;;;;;;1.48;0.60;;;20.40;48.60;;;;;;10471906;28;20139;-46
2023/12/20 03:30:17;;;;;;;0.88;0.52;;;20.40;48.70;;;;;;10469958;28;20132;-46
2023/12/20 03:35:19;;;;;;;1.05;0.60;;;20.50;48.30;;;;;;10468675;28;21004;-46
2023/12/20 03:40:22;;;;;;;1.25;0.70;;;20.40;48.20;;;;;;10468696;28;20130;-44
2023/12/20 03:45:23;;;;;;;1.52;0.60;;;20.30;48.40;;;;;;10482625;28;20056;-47
2023/12/20 03:50:25;;;;;;;0.95;0.50;;;20.20;48.60;;;;;;10473535;28;20071;-46
2023/12/20 03:55:28;;;;;;;1.45;0.60;;;20.10;48.80;;;;;;10471657;28;20139;-47
2023/12/20 04:00:30;;;;;;;1.25;0.60;;;20.20;48.60;;;;;;10484021;28;20052;-44
2023/12/20 04:05:31;;;;;;;0.85;0.57;;;20.10;48.80;;;;;;10482168;28;20135;-45
2023/12/20 04:10:34;;;;;;;1.60;0.75;;;20.20;49.10;;;;;;10483759;28;20506;-46
2023/12/20 04:15:36;;;;;;;1.45;0.68;;;20.50;48.80;;;;;;10478350;28;20054;-47
2023/12/20 04:20:38;;;;;;;2.90;0.60;;;20.80;48.30;;;;;;10471313;28;20071;-47
2023/12/20 04:25:41;;;;;;;1.63;0.50;;;20.90;48.30;;;;;;10478451;28;20139;-46
2023/12/20 04:30:43;;;;;;;4.45;0.77;;;21.00;48.50;;;;;;10476575;28;20135;-45
2023/12/20 04:35:46;;;;;;;6.20;1.35;;;21.20;49.50;;;;;;10476349;28;20071;-46
2023/12/20 04:40:48;;;;;;;4.50;1.15;;;21.40;50.50;;;;;;10479614;28;20049;-47
2023/12/20 04:45:50;;;;;;;4.25;1.20;;;21.70;50.30;;;;;;10473011;28;20041;-47
2023/12/20 04:50:52;;;;;;;4.65;1.48;;;22.00;49.60;;;;;;10470765;28;20144;-48
2023/12/20 04:55:55;;;;;;;2.90;1.00;;;22.10;49.30;;;;;;10473467;28;20131;-50
2023/12/20 05:00:56;;;;;;;4.68;1.10;;;22.30;48.90;;;;;;10474495;28;20140;-51
2023/12/20 05:05:58;;;;;;;2.78;0.98;;;22.30;48.90;;;;;;10477306;28;20558;-46
2023/12/20 05:11:01;;;;;;;4.05;1.02;;;22.40;48.50;;;;;;10476393;28;20152;-49
2023/12/20 05:16:02;;;;;;;3.75;1.10;;;22.50;48.50;;;;;;10472909;28;20140;-47
2023/12/20 05:21:04;;;;;;;2.95;0.88;;;22.60;48.20;;;;;;10477721;28;20147;-47
2023/12/20 05:26:07;;;;;;;2.50;0.95;;;22.50;48.40;;;;;;10481671;28;20498;-47
2023/12/20 05:31:09;;;;;;;3.13;0.90;;;22.70;48.10;;;;;;10474828;28;20127;-47
2023/12/20 05:36:13;;;;;;;3.10;1.20;;;22.60;48.40;;;;;;10463139;28;20057;-47
2023/12/20 05:41:16;;;;;;;3.00;1.00;;;22.70;49.10;;;;;;10477745;28;20160;-47
2023/12/20 05:46:18;;;;;;;3.15;1.23;;;22.80;48.60;;;;;;10475999;28;20127;-47
2023/12/20 05:51:19;;;;;;;2.67;1.55;;;22.70;49.30;;;;;;10474681;28;20143;-45
2023/12/20 05:56:22;;;;;;;3.80;1.27;;;22.70;49.70;;;;;;10478802;28;20131;-46
2023/12/20 06:01:24;;;;;;;3.30;1.38;;;22.80;49.80;;;;;;10476675;28;20565;-46
2023/12/20 06:06:25;;;;;;;3.03;1.35;;;22.70;49.90;;;;;;10469250;28;20740;-46
2023/12/20 06:11:28;;;;;;;3.60;1.33;;;22.70;49.70;;;;;;10467152;28;20140;-46
2023/12/20 06:16:30;;;;;;;4.60;1.40;;;22.60;49.70;;;;;;10474049;28;20127;-47
2023/12/20 06:21:32;;;;;;;2.83;1.40;;;22.30;50.50;;;;;;10475455;28;20136;-46
2023/12/20 06:26:35;;;;;;;4.28;1.38;;;22.40;50.30;;;;;;10479034;28;20044;-48
2023/12/20 06:31:36;;;;;;;1.90;1.25;;;22.40;50.20;;;;;;10475387;28;20132;-49
2023/12/20 06:36:38;;;;;;;4.45;1.38;;;22.50;50.10;;;;;;10477883;28;20531;-47
2023/12/20 06:41:42;;;;;;;7.85;1.35;;;22.60;50.00;;;;;;10467975;28;20487;-46
2023/12/20 06:46:44;;;;;;;6.15;1.70;;;22.50;50.50;;;;;;10467975;28;20057;-45
2023/12/20 06:51:46;;;;;;;6.50;1.80;;;22.50;50.50;;;;;;10469826;28;20123;-49
2023/12/20 06:56:49;;;;;;;5.57;1.50;;;22.50;50.50;;;;;;10473582;28;20140;-46
2023/12/20 07:01:50;;;;;;;3.00;1.60;;;22.60;50.30;;;;;;10470113;28;20091;-46
2023/12/20 07:06:56;;;;;;;6.13;1.50;;;22.50;51.10;;;;;;10465500;28;20044;-45
2023/12/20 07:11:59;;;;;;;4.40;1.33;;;22.50;51.00;;;;;;10467104;28;20049;-44
2023/12/20 07:17:01;;;;;;;6.30;1.70;;;22.30;51.40;;;;;;10470810;28;20139;-46
2023/12/20 07:22:02;;;;;;;6.80;1.70;;;22.20;51.40;;;;;;10471956;28;20132;-44
2023/12/20 07:27:05;;;;;;;4.30;1.50;;;22.00;51.70;;;;;;10474343;28;20050;-46
2023/12/20 07:32:08;;;;;;;4.82;1.60;;;21.80;51.90;;;;;;10465993;28;20053;-44
2023/12/20 07:37:11;;;;;;;5.47;1.58;;;21.70;51.70;;;;;;10463296;28;20056;-44
2023/12/20 07:42:14;;;;;;;4.90;1.52;;;21.70;51.70;;;;;;10473600;28;20063;-47
2023/12/20 07:47:19;;;;;;;3.95;1.40;;;21.60;51.60;;;;;;10485077;28;20040;-44
2023/12/20 07:52:21;;;;;;;3.80;1.17;;;21.60;51.20;;;;;;10485522;28;20106;-47
2023/12/20 07:57:24;;;;;;;3.47;1.15;;;21.50;51.10;;;;;;10479644;28;20041;-48
2023/12/20 08:02:26;;;;;;;3.03;1.02;;;21.40;51.00;;;;;;10480265;28;20051;-44
2023/12/20 08:07:27;;;;;;;4.60;1.42;;;21.40;51.00;;;;;;10483948;28;20055;-45
2023/12/20 08:12:30;;;;;;;3.42;1.40;;;21.30;51.10;;;;;;10467717;28;20139;-45
2023/12/20 08:17:32;;;;;;;4.57;1.33;;;21.40;50.60;;;;;;10473280;28;20525;-45
2023/12/20 08:22:34;;;;;;;3.83;1.25;;;21.50;50.20;;;;;;10472949;28;20519;-44
2023/12/20 08:27:39;;;;;;;1.80;1.00;;;21.60;49.60;;;;;;10478302;28;20049;-45
2023/12/20 08:32:40;;;;;;;2.38;1.10;;;21.50;49.50;;;;;;10485105;28;20080;-49
2023/12/20 08:37:42;;;;;;;2.17;1.20;;;21.40;49.60;;;;;;10479932;28;20133;-44
2023/12/20 08:42:45;;;;;;;3.08;1.00;;;21.20;49.70;;;;;;10479422;28;20135;-44
2023/12/20 08:47:47;;;;;;;5.10;1.40;;;21.10;49.90;;;;;;10475219;28;20135;-44
2023/12/20 08:52:48;;;;;;;4.13;1.25;;;21.00;49.80;;;;;;10476281;28;20075;-44
2023/12/20 08:57:51;;;;;;;1.92;0.95;;;21.00;49.90;;;;;;10486119;28;20136;-44
2023/12/20 09:02:53;;;;;;;3.05;1.10;;;20.90;49.80;;;;;;10474861;28;20131;-44
2023/12/20 09:07:54;;;;;;;4.53;1.45;;;20.80;49.80;;;;;;10477664;28;20054;-44
2023/12/20 09:12:57;;;;;;;3.55;1.35;;;20.80;49.90;;;;;;10474342;28;20135;-49
2023/12/20 09:17:59;;;;;;;2.42;1.30;;;20.70;49.80;;;;;;10478295;28;20041;-44
2023/12/20 09:23:01;;;;;;;1.65;0.90;;;20.60;49.70;;;;;;10476694;28;20125;-49
2023/12/20 09:28:04;;;;;;;2.80;1.10;;;20.60;49.60;;;;;;10468005;28;20083;-44
2023/12/20 09:33:07;;;;;;;2.33;1.13;;;20.50;49.80;;;;;;10467552;28;20168;-43
2023/12/20 09:38:08;;;;;;;2.30;0.90;;;20.60;49.70;;;;;;10471546;28;20391;-44
2023/12/20 09:43:12;;;;;;;2.08;0.90;;;20.50;49.60;;;;;;10480077;28;20066;-43
2023/12/20 09:48:14;;;;;;;2.47;1.10;;;20.50;49.70;;;;;;10475431;28;20052;-43
2023/12/20 09:53:16;;;;;;;1.65;0.90;;;20.60;49.40;;;;;;10473446;28;20068;-47
2023/12/20 09:58:19;;;;;;;2.50;0.90;;;20.50;49.40;;;;;;10476004;28;20135;-43
2023/12/20 10:03:22;;;;;;;2.03;1.02;;;20.50;49.40;;;;;;10475328;28;20595;-46
2023/12/20 10:08:24;;;;;;;1.80;0.90;;;20.30;49.60;;;;;;10470203;28;20478;-44
2023/12/20 10:13:27;;;;;;;2.40;0.90;;;20.50;48.80;;;;;;10467396;28;20131;-44
2023/12/20 10:18:30;;;;;;;1.95;0.98;;;20.40;49.40;;;;;;10469252;28;20635;-43
2023/12/20 10:23:31;;;;;;;2.53;1.00;;;20.40;49.20;;;;;;10474187;28;20136;-46
2023/12/20 10:28:35;;;;;;;2.55;1.00;;;20.40;49.10;;;;;;10474332;28;20135;-44
2023/12/20 10:33:37;;;;;;;2.30;0.90;;;20.30;49.00;;;;;;10479342;28;20106;-44
2023/12/20 10:38:38;;;;;;;1.95;0.90;;;20.40;48.80;;;;;;10472585;28;20131;-44
2023/12/20 10:43:41;;;;;;;2.25;0.90;;;20.30;48.90;;;;;;10470678;28;20057;-44
2023/12/20 10:48:43;;;;;;;1.75;0.85;;;20.20;49.00;;;;;;10469539;28;20049;-46
2023/12/20 10:53:45;;;;;;;1.60;0.80;;;20.20;48.90;;;;;;10478518;28;20135;-46
2023/12/20 10:58:49;;;;;;;1.85;0.75;;;20.10;49.10;;;;;;10477522;28;20052;-43
2023/12/20 11:03:51;;;;;;;1.42;0.80;;;20.10;49.00;;;;;;10470659;28;20136;-44
2023/12/20 11:08:56;;;;;;;1.70;0.73;;;20.10;49.10;;;;;;10469750;28;20187;-44
2023/12/20 11:14:00;;;;;;;1.42;0.70;;;20.00;49.10;;;;;;10475124;28;20131;-45
2023/12/20 11:19:05;;;;;;;1.35;0.60;;;19.80;49.40;;;;;;10471796;28;20136;-48
2023/12/20 11:24:07;;;;;;;1.13;0.60;;;19.70;49.60;;;;;;10464171;28;20128;-43
2023/12/20 11:29:34;;;;;;;1.27;0.75;;;19.70;49.50;;;;;;10467837;28;20487;-43
2023/12/20 11:34:36;;;;;;;1.00;0.60;;;19.60;49.70;;;;;;10466122;28;20056;-43
2023/12/20 11:39:37;;;;;;;1.42;0.65;;;19.70;49.70;;;;;;10476731;28;20476;-44
2023/12/20 11:44:40;;;;;;;2.28;0.77;;;19.50;49.80;;;;;;10473961;28;20131;-48
2023/12/20 11:49:42;;;;;;;1.35;0.70;;;19.60;49.90;;;;;;10470367;28;20484;-44
2023/12/20 11:54:44;;;;;;;1.98;0.90;;;19.50;49.90;;;;;;10472459;28;20087;-47
2023/12/20 11:59:47;;;;;;;2.13;0.80;;;19.50;49.80;;;;;;10469879;28;20140;-43
2023/12/20 12:04:50;;;;;;;1.15;0.63;;;19.40;49.90;;;;;;10477235;28;20487;-45
2023/12/20 12:09:52;;;;;;;1.23;0.60;;;19.30;49.90;;;;;;10463990;28;20045;-43
2023/12/20 12:14:56;;;;;;;0.98;0.60;;;19.40;49.70;;;;;;10468401;28;20136;-44
2023/12/20 12:20:04;;;;;;;1.00;0.50;;;19.30;49.80;;;;;;10470189;28;20040;-44
2023/12/20 12:25:12;;;;;;;2.13;0.70;;;19.40;49.70;;;;;;10467526;28;20479;-44
2023/12/20 12:30:18;;;;;;;1.42;0.90;;;19.40;49.70;;;;;;10481548;28;20436;-44
2023/12/20 12:35:20;;;;;;;1.40;0.75;;;19.60;49.40;;;;;;10477051;28;20052;-47
2023/12/20 12:40:21;;;;;;;1.52;0.80;;;19.80;49.90;;;;;;10475370;28;20152;-48
2023/12/20 12:45:24;;;;;;;1.25;0.55;;;20.10;50.00;;;;;;10475625;28;20127;-44
2023/12/20 12:50:28;;;;;;;1.63;0.80;;;20.10;50.30;;;;;;10476135;28;20049;-45
2023/12/20 12:55:32;;;;;;;1.55;0.70;;;20.10;50.50;;;;;;10477929;28;20057;-44
2023/12/20 13:00:34;;;;;;;0.90;0.60;;;20.30;50.50;;;;;;10475429;28;20048;-44
2023/12/20 13:05:36;;;;;;;1.50;0.70;;;20.50;50.30;;;;;;10474320;28;20214;-44
2023/12/20 13:10:39;;;;;;;1.20;0.70;;;20.50;50.30;;;;;;10481083;28;20049;-45
2023/12/20 13:15:42;;;;;;;1.35;0.80;;;20.60;50.40;;;;;;10473440;28;20056;-44
2023/12/20 13:20:44;;;;;;;1.08;0.60;;;20.60;50.30;;;;;;10471091;28;20124;-45
2023/12/20 13:25:46;;;;;;;0.90;0.60;;;20.80;50.30;;;;;;10468747;28;20492;-43
2023/12/20 13:30:49;;;;;;;1.95;0.85;;;20.80;50.30;;;;;;10473885;28;20102;-45
2023/12/20 13:35:51;;;;;;;2.03;0.80;;;20.90;50.10;;;;;;10479548;28;20131;-43
2023/12/20 13:40:52;;;;;;;0.88;0.60;;;21.00;50.60;;;;;;10477261;28;20453;-44
2023/12/20 13:45:56;;;;;;;1.48;0.80;;;21.10;49.90;;;;;;10475873;28;20045;-43
2023/12/20 13:50:58;;;;;;;0.98;0.60;;;21.10;49.90;;;;;;10476361;28;20049;-43
2023/12/20 13:56:00;;;;;;;0.90;0.55;;;21.20;50.00;;;;;;10475129;28;20099;-46
2023/12/20 14:01:03;;;;;;;2.28;0.80;;;21.20;49.90;;;;;;10486456;28;20045;-43
2023/12/20 14:06:05;;;;;;;2.03;0.80;;;21.30;49.90;;;;;;10468207;28;20057;-43
2023/12/20 14:11:07;;;;;;;1.60;0.90;;;21.40;49.80;;;;;;10474978;28;20140;-43
2023/12/20 14:16:10;;;;;;;1.40;0.88;;;21.40;49.80;;;;;;10470428;28;20079;-44
2023/12/20 14:21:19;;;;;;;1.67;0.80;;;21.50;49.50;;;;;;10473885;28;20040;-47
2023/12/20 14:26:21;;;;;;;2.28;0.90;;;21.70;49.10;;;;;;10479345;28;20470;-44
2023/12/20 14:31:24;;;;;;;2.17;0.63;;;21.60;49.10;;;;;;10472535;28;20132;-44
2023/12/20 14:36:26;;;;;;;1.88;0.80;;;21.60;49.00;;;;;;10471215;28;20049;-47
2023/12/20 14:41:28;;;;;;;1.75;0.82;;;21.80;48.60;;;;;;10468899;28;20554;-45
2023/12/20 14:46:31;;;;;;;3.15;1.08;;;21.90;48.30;;;;;;10475692;28;20056;-46
2023/12/20 14:51:32;;;;;;;1.13;0.70;;;22.00;48.10;;;;;;10474539;28;20080;-44
2023/12/20 14:56:35;;;;;;;2.47;0.80;;;21.90;48.10;;;;;;10473392;28;20147;-48
2023/12/20 15:01:40;;;;;;;2.28;1.00;;;21.70;48.60;;;;;;10469000;28;20127;-44
2023/12/20 15:06:44;;;;;;;1.10;0.63;;;21.60;48.90;;;;;;10475519;28;20052;-45
2023/12/20 15:11:46;;;;;;;1.15;0.60;;;21.60;49.00;;;;;;10466417;28;20459;-49
2023/12/20 15:16:49;;;;;;;1.65;0.80;;;21.60;49.20;;;;;;10470718;28;20053;-44
2023/12/20 15:21:51;;;;;;;3.05;0.80;;;21.80;49.00;;;;;;10468141;28;20503;-45
2023/12/20 15:26:53;;;;;;;3.22;1.10;;;21.80;49.00;;;;;;10467779;28;20044;-48
2023/12/20 15:31:56;;;;;;;2.20;0.90;;;21.80;49.90;;;;;;10471257;28;20541;-44
2023/12/20 15:36:57;;;;;;;2.95;1.02;;;21.80;49.50;;;;;;10471599;28;20059;-44
2023/12/20 15:41:59;;;;;;;6.03;0.95;;;21.80;49.70;;;;;;10474343;28;20291;-44
2023/12/20 15:47:02;;;;;;;3.67;1.08;;;21.80;49.60;;;;;;10467681;28;20299;-45
2023/12/20 15:52:04;;;;;;;7.35;1.10;;;21.90;49.60;;;;;;10464172;28;20049;-48
2023/12/20 15:57:06;;;;;;;2.92;1.05;;;22.00;49.80;;;;;;10468822;28;20144;-47
2023/12/20 16:02:09;;;;;;;3.90;1.17;;;21.90;49.80;;;;;;10470085;28;20148;-43
2023/12/20 16:07:11;;;;;;;3.05;1.00;;;21.90;49.90;;;;;;10474981;28;20062;-44
2023/12/20 16:12:12;;;;;;;4.68;1.10;;;22.00;49.70;;;;;;10472764;28;20139;-45
2023/12/20 16:17:16;;;;;;;2.92;1.30;;;22.00;49.70;;;;;;10480784;28;20148;-44
2023/12/20 16:22:18;;;;;;;3.92;1.17;;;22.10;49.50;;;;;;10482274;28;20098;-44
2023/12/20 16:27:20;;;;;;;4.28;1.08;;;22.10;49.50;;;;;;10478116;28;20475;-44
2023/12/20 16:32:23;;;;;;;1.80;0.82;;;22.10;49.60;;;;;;10473010;28;20172;-43
2023/12/20 16:37:24;;;;;;;3.30;0.95;;;22.10;49.50;;;;;;10471360;28;20144;-43
2023/12/20 16:42:26;;;;;;;4.22;1.10;;;22.20;49.40;;;;;;10481644;28;20131;-43
2023/12/20 16:47:29;;;;;;;1.48;0.90;;;22.20;49.50;;;;;;10479930;28;20459;-45
2023/12/20 16:52:30;;;;;;;1.92;1.00;;;22.20;49.50;;;;;;10477261;28;20132;-47
2023/12/20 16:57:32;;;;;;;2.33;1.10;;;22.20;49.50;;;;;;10477313;28;20140;-44
2023/12/20 17:02:35;;;;;;;2.50;0.93;;;22.20;49.30;;;;;;10480083;28;20132;-45
2023/12/20 17:07:37;;;;;;;1.95;1.00;;;22.30;49.20;;;;;;10475733;28;20091;-43
2023/12/20 17:12:38;;;;;;;2.47;0.90;;;22.40;49.20;;;;;;10473108;28;20085;-44
2023/12/20 17:17:41;;;;;;;3.20;0.80;;;22.40;49.00;;;;;;10470834;28;20180;-45
2023/12/20 17:22:43;;;;;;;2.78;1.00;;;22.40;48.90;;;;;;10471749;28;20084;-46
2023/12/20 17:27:45;;;;;;;2.53;0.82;;;22.40;48.90;;;;;;10475292;28;20136;-43
2023/12/20 17:32:48;;;;;;;2.08;0.80;;;22.50;48.80;;;;;;10475694;28;20984;-47
2023/12/20 17:37:51;;;;;;;3.95;1.00;;;22.50;48.60;;;;;;10477357;28;20041;-44
2023/12/20 17:42:53;;;;;;;2.35;0.90;;;22.50;48.70;;;;;;10468296;28;20037;-43
2023/12/20 17:47:56;;;;;;;1.80;0.90;;;22.50;48.60;;;;;;10474593;28;20055;-44
2023/12/20 17:52:59;;;;;;;1.77;1.00;;;22.60;48.20;;;;;;10475432;28;20049;-44
2023/12/20 17:58:01;;;;;;;2.10;1.00;;;22.50;48.40;;;;;;10483303;28;20138;-45
2023/12/20 18:03:04;;;;;;;2.95;1.05;;;22.60;48.40;;;;;;10473423;28;20075;-43
2023/12/20 18:08:06;;;;;;;2.03;1.08;;;22.60;48.40;;;;;;10468460;28;20149;-45
2023/12/20 18:13:08;;;;;;;1.75;1.00;;;22.60;48.50;;;;;;10476675;28;20141;-49
2023/12/20 18:18:11;;;;;;;1.92;0.90;;;22.60;48.50;;;;;;10475316;28;20139;-47
2023/12/20 18:23:13;;;;;;;1.98;0.90;;;22.70;48.40;;;;;;10470621;28;20083;-45
2023/12/20 18:28:14;;;;;;;3.50;1.20;;;22.70;48.40;;;;;;10469538;28;20175;-49
2023/12/20 18:33:17;;;;;;;1.67;1.02;;;22.80;48.20;;;;;;10468495;28;20043;-44
2023/12/20 18:38:19;;;;;;;2.05;1.17;;;22.70;48.00;;;;;;10474801;28;20131;-46
2023/12/20 18:43:21;;;;;;;1.13;0.80;;;22.70;48.00;;;;;;10475244;28;20056;-44
2023/12/20 18:48:24;;;;;;;3.85;1.00;;;22.80;48.70;;;;;;10464328;28;20423;-44
2023/12/20 18:53:25;;;;;;;2.22;0.90;;;22.70;48.00;;;;;;10465831;28;20133;-43
2023/12/20 18:58:31;;;;;;;2.30;1.00;;;22.70;48.20;;;;;;10469030;28;20135;-47
2023/12/20 19:03:34;;;;;;;3.25;1.23;;;22.60;49.20;;;;;;10467133;28;20049;-45
2023/12/20 19:08:36;;;;;;;5.97;1.30;;;22.60;50.50;;;;;;10463322;28;20127;-45
2023/12/20 19:13:38;;;;;;;6.88;1.30;;;22.60;51.80;;;;;;10470492;28;20116;-44
2023/12/20 19:18:41;;;;;;;6.60;1.42;;;22.50;53.50;;;;;;10462164;28;20972;-43
2023/12/20 19:23:43;;;;;;;6.43;3.30;;;22.60;52.70;;;;;;10460186;28;20474;-43
2023/12/20 19:28:45;;;;;;;12.07;5.28;;;22.50;53.20;;;;;;10471680;28;20045;-44
2023/12/20 19:33:52;;;;;;;16.38;8.13;;;22.50;53.30;;;;;;10470025;28;20048;-43
2023/12/20 19:38:53;;;;;;;16.15;9.52;;;22.50;53.10;;;;;;10461094;28;20107;-45
2023/12/20 19:43:57;;;;;;;20.00;9.45;;;22.40;53.90;;;;;;10461240;28;20045;-42
2023/12/20 19:49:03;;;;;;;17.02;8.00;;;22.40;54.70;;;;;;10468131;28;20075;-45
2023/12/20 19:54:04;;;;;;;17.60;10.15;;;22.40;54.70;;;;;;10460476;28;20068;-46
2023/12/20 19:59:06;;;;;;;12.38;8.20;;;22.40;54.60;;;;;;10459861;28;20148;-42
2023/12/20 20:04:09;;;;;;;13.35;8.02;;;22.80;53.90;;;;;;10463765;28;20135;-43
2023/12/20 20:09:11;;;;;;;29.63;8.68;;;22.90;53.40;;;;;;10459009;28;20135;-45
2023/12/20 20:14:13;;;;;;;54.13;10.90;;;23.20;52.60;;;;;;10458540;28;20049;-43
2023/12/20 20:19:16;;;;;;;42.53;10.25;;;23.00;53.20;;;;;;10469624;28;20511;-43
2023/12/20 20:24:17;;;;;;;27.35;9.07;;;23.20;52.80;;;;;;10466668;28;20080;-43
2023/12/20 20:29:19;;;;;;;27.48;8.93;;;23.10;52.60;;;;;;10459475;28;20057;-44
2023/12/20 20:34:27;;;;;;;24.98;9.43;;;23.10;52.50;;;;;;10466208;28;20053;-47
2023/12/20 20:39:28;;;;;;;20.50;9.20;;;23.10;52.80;;;;;;10459660;28;20063;-46
2023/12/20 20:44:30;;;;;;;25.85;9.10;;;23.10;52.10;;;;;;10465977;28;20145;-44
2023/12/20 20:49:33;;;;;;;20.17;8.23;;;22.90;51.90;;;;;;10465238;28;20047;-42
2023/12/20 20:54:35;;;;;;;16.55;7.97;;;22.90;52.70;;;;;;10473149;28;20045;-47
2023/12/20 20:59:38;;;;;;;20.77;8.18;;;22.80;52.70;;;;;;10473459;28;20450;-42
2023/12/20 21:04:40;;;;;;;21.23;7.65;;;22.90;51.80;;;;;;10463810;28;20048;-45
2023/12/20 21:09:42;;;;;;;13.52;7.05;;;22.90;51.00;;;;;;10469141;28;20041;-43
2023/12/20 21:14:44;;;;;;;11.57;6.97;;;22.80;51.30;;;;;;10470559;28;20566;-46
2023/12/20 21:19:47;;;;;;;14.48;7.22;;;22.60;51.50;;;;;;10477213;28;20047;-44
2023/12/20 21:24:48;;;;;;;18.33;6.70;;;22.50;51.60;;;;;;10481886;28;20554;-45
2023/12/20 21:29:50;;;;;;;13.93;5.85;;;22.40;51.80;;;;;;10468086;28;20041;-43
2023/12/20 21:34:53;;;;;;;12.27;6.45;;;22.30;51.60;;;;;;10471446;28;20136;-46
2023/12/20 21:39:54;;;;;;;7.95;5.80;;;22.30;51.80;;;;;;10464362;28;20124;-44
2023/12/20 21:44:56;;;;;;;7.82;5.57;;;22.20;51.80;;;;;;10473759;28;20132;-43
2023/12/20 21:49:59;;;;;;;15.55;6.50;;;22.10;51.90;;;;;;10476718;28;20582;-43
2023/12/20 21:55:01;;;;;;;12.13;5.53;;;22.10;51.80;;;;;;10466088;28;20076;-44
2023/12/20 22:00:02;;;;;;;8.60;5.68;;;22.00;51.80;;;;;;10469570;28;20124;-43
2023/12/20 22:05:06;;;;;;;10.57;5.30;;;22.00;51.80;;;;;;10467710;28;20118;-44
2023/12/20 22:10:09;;;;;;;6.40;5.20;;;21.90;52.60;;;;;;10469429;28;20075;-43
2023/12/20 22:15:11;;;;;;;9.90;5.15;;;21.90;51.80;;;;;;10469399;28;20072;-46
2023/12/20 22:20:14;;;;;;;8.73;5.65;;;21.80;51.80;;;;;;10463917;28;20135;-46
2023/12/20 22:25:16;;;;;;;6.85;4.70;;;21.70;52.20;;;;;;10464461;28;20465;-44
2023/12/20 22:30:18;;;;;;;7.30;4.88;;;21.70;52.00;;;;;;10468104;28;20051;-44
2023/12/20 22:35:21;;;;;;;6.60;4.82;;;21.70;51.90;;;;;;10472055;28;20080;-46
2023/12/20 22:40:22;;;;;;;7.68;5.07;;;21.70;51.60;;;;;;10468283;28;20083;-43
2023/12/20 22:45:24;;;;;;;7.28;4.72;;;21.70;51.70;;;;;;10465990;28;20481;-43
2023/12/20 22:50:27;;;;;;;6.65;4.55;;;21.50;52.00;;;;;;10466886;28;20139;-42
2023/12/20 22:55:29;;;;;;;7.05;4.45;;;21.40;52.10;;;;;;10471350;28;20139;-43
2023/12/20 23:00:30;;;;;;;6.07;4.93;;;21.50;51.70;;;;;;10467729;28;20485;-43
2023/12/20 23:05:33;;;;;;;7.32;4.43;;;21.30;52.10;;;;;;10465429;28;20084;-42
2023/12/20 23:10:35;;;;;;;6.88;4.43;;;21.50;51.90;;;;;;10464926;28;20172;-43
2023/12/20 23:15:37;;;;;;;5.55;4.40;;;21.30;52.20;;;;;;10468356;28;20048;-44
2023/12/20 23:20:40;;;;;;;4.57;4.07;;;21.20;52.20;;;;;;10469562;28;20075;-43
2023/12/20 23:25:44;;;;;;;6.38;3.90;;;21.10;52.40;;;;;;10469492;28;20471;-45
2023/12/20 23:30:45;;;;;;;5.20;3.55;;;21.20;52.20;;;;;;10466608;28;20051;-42
2023/12/20 23:35:48;;;;;;;5.20;3.70;;;21.10;52.80;;;;;;10459515;28;20417;-44
2023/12/20 23:40:50;;;;;;;6.13;3.90;;;21.00;52.20;;;;;;10471334;28;20052;-47
2023/12/20 23:45:52;;;;;;;5.38;3.80;;;21.00;52.30;;;;;;10467438;28;20143;-43
2023/12/20 23:50:54;;;;;;;4.97;3.40;;;20.90;52.40;;;;;;10465558;28;21565;-43
2023/12/20 23:55:56;;;;;;;5.63;3.70;;;20.90;52.20;;;;;;10464558;28;20128;-42
